Cleveland, Ohio
Traffic Map
Current Weather Conditions
Cleveland, Ohio
Overcast
Overcast
34°
Feels Like: 28°
Wind Chill: 28° Ceiling: 2800
Heat Index: 34° Visibility: 10mi
Dew Point: 24° Wind: 7mph
Humidity: 67% Direction: 90° (E)
Pressure: 30.15in Gusts: 0mph
Raw Report DataKBKL 261253Z 09006KT 10SM OVC028 01/M04 A3015 RMK AO2 SLP217 T00111044
Traffic Incident Summary
Active as of:
Severity:
Category:
InformationThere was an issue retrieving the traffic information for this location. Please try a different location or try again shortly.
Advertisements
Track Severe Weather on mobile